Terminal Aerodrome Forecast
Issued by NWS Houston/Galveston, TX

Home | Current Version | Previous Version | Text Only | Print | Product List | Glossary On
Versions: 1 2 3 4 5 6 7 8 9 10 11 12 13 14 15 16 17 18 19 20 21 22 23 24 25 26 27 28 29 30
000
FTUS44 KHGX 312321
TAFGLS
TAF
KGLS 312321Z 0100/0124 11010KT P6SM SCT020 BKN250
     FM011000 14008KT P6SM VCSH SCT025 BKN250
     FM011300 14009KT P6SM VCTS BKN035CB BKN250
     FM012000 13010KT P6SM BKN250=

USA.gov is the U.S. government's official web portal to all federal, state and local government web resources and services.